Time;durP1;ratioP1;P1;durP2;ratioP2;P2;SDS_P1;SDS_P2;PMS_P1;PMS_P2;Temp;Humidity;BMP_temperature;BMP_pressure;BME280_temperature;BME280_humidity;BME280_pressure;Samples;Min_cycle;Max_cycle;Signal;HPM_P1;HPM_P2
2023/07/13 00:02:05;;;;;;;7.23;5.40;;;;;;;19.35;64.93;100693.06;4912598;29;20473;-66
2023/07/13 00:04:48;;;;;;;12.00;4.67;;;;;;;19.29;65.92;100694.94;4915732;29;20461;-67
2023/07/13 00:07:31;;;;;;;9.83;4.83;;;;;;;19.50;64.35;100696.75;4900669;29;20578;-66
2023/07/13 00:10:12;;;;;;;7.20;5.53;;;;;;;19.31;64.65;100695.53;4885177;29;20475;-68
2023/07/13 00:12:47;;;;;;;8.23;4.30;;;;;;;19.46;65.69;100684.63;4918787;29;20824;-71
2023/07/13 00:15:31;;;;;;;5.63;5.00;;;;;;;19.40;64.23;100684.88;4904031;29;20458;-70
2023/07/13 00:18:07;;;;;;;6.53;4.80;;;;;;;19.25;65.03;100691.09;4919032;29;20458;-69
2023/07/13 00:20:50;;;;;;;5.70;4.90;;;;;;;19.14;64.66;100689.34;4897695;29;20457;-66
2023/07/13 00:23:25;;;;;;;9.37;5.20;;;;;;;19.49;65.11;100697.03;4905124;29;20468;-69
2023/07/13 00:26:05;;;;;;;7.90;5.33;;;;;;;19.50;63.89;100696.75;4896642;29;20529;-67
2023/07/13 00:28:47;;;;;;;10.23;5.43;;;;;;;19.68;63.74;100698.22;4897446;29;21180;-66
2023/07/13 00:31:25;;;;;;;4.60;4.00;;;;;;;19.28;65.09;100704.25;4901997;29;20451;-67
2023/07/13 00:34:06;;;;;;;6.27;4.77;;;;;;;19.34;65.79;100705.13;4899220;29;20474;-66
2023/07/13 00:36:40;;;;;;;11.23;5.37;;;;;;;19.62;64.18;100706.69;4905953;29;20462;-67
2023/07/13 00:39:20;;;;;;;7.40;4.50;;;;;;;19.27;64.18;100708.09;4907479;29;20469;-67
2023/07/13 00:41:58;;;;;;;9.67;4.67;;;;;;;19.77;63.96;100701.28;4901824;29;20445;-69
2023/07/13 00:44:39;;;;;;;6.23;4.70;;;;;;;19.89;63.55;100691.75;4898301;29;20525;-67
2023/07/13 00:47:20;;;;;;;10.47;4.80;;;;;;;19.77;64.12;100699.34;4901001;29;20501;-67
2023/07/13 00:50:00;;;;;;;8.50;4.30;;;;;;;19.93;63.87;100701.09;4898018;29;20453;-67
2023/07/13 00:52:40;;;;;;;8.13;4.17;;;;;;;19.78;64.18;100703.75;4900179;29;20440;-67
2023/07/13 00:55:22;;;;;;;7.83;4.70;;;;;;;19.69;64.94;100697.13;4913646;29;20443;-67
2023/07/13 00:58:02;;;;;;;7.43;5.10;;;;;;;19.36;65.11;100694.72;4899135;29;20478;-67
2023/07/13 01:00:40;;;;;;;5.70;4.60;;;;;;;19.40;65.92;100693.94;4897298;29;20462;-68
2023/07/13 01:03:18;;;;;;;5.67;5.17;;;;;;;19.24;66.75;100692.16;4898992;29;20560;-66
2023/07/13 01:54:08;;;;;;;8.50;5.17;;;;;;;18.82;69.79;100705.84;4902710;29;20470;-68
2023/07/13 01:56:53;;;;;;;6.90;4.70;;;;;;;18.79;69.08;100695.38;4896224;29;20967;-66
2023/07/13 01:59:35;;;;;;;8.10;6.23;;;;;;;18.62;70.05;100694.69;4905596;29;20490;-68
2023/07/13 02:02:13;;;;;;;6.60;5.00;;;;;;;19.02;68.77;100699.69;4896278;29;20875;-67
2023/07/13 02:05:02;;;;;;;6.93;5.40;;;;;;;18.92;68.27;100692.22;4911134;29;20893;-66
2023/07/13 02:07:45;;;;;;;6.53;4.93;;;;;;;18.80;68.90;100704.44;4913234;29;20529;-67
2023/07/13 02:11:13;;;;;;;8.00;5.43;;;;;;;18.97;69.04;100705.13;4912148;29;20667;-67
2023/07/13 02:13:52;;;;;;;8.47;5.80;;;;;;;19.09;68.48;100695.63;4913573;29;20977;-68
2023/07/13 02:16:36;;;;;;;5.47;4.63;;;;;;;19.22;67.80;100702.56;4898388;29;20420;-67
2023/07/13 02:19:13;;;;;;;6.80;5.70;;;;;;;18.99;68.62;100700.19;4899177;29;20541;-68
2023/07/13 02:21:53;;;;;;;6.00;5.23;;;;;;;19.11;68.51;100703.59;4898683;29;20449;-68
2023/07/13 02:24:36;;;;;;;6.40;5.27;;;;;;;19.17;67.84;100707.22;4898076;29;20445;-67
2023/07/13 02:27:25;;;;;;;9.93;6.60;;;;;;;18.92;68.17;100705.09;4891922;29;20478;-67
2023/07/13 02:30:15;;;;;;;5.77;5.17;;;;;;;18.47;70.19;100706.28;4896196;29;20425;-66
2023/07/13 02:32:55;;;;;;;8.10;5.13;;;;;;;18.07;70.88;100697.63;4901472;29;20486;-67
2023/07/13 02:35:31;;;;;;;6.90;6.10;;;;;;;18.08;72.63;100688.34;4904747;29;20425;-67
2023/07/13 02:38:11;;;;;;;5.53;4.93;;;;;;;17.84;72.28;100684.22;4882095;29;20460;-67
2023/07/13 02:40:50;;;;;;;5.83;5.27;;;;;;;18.32;71.71;100683.38;4898599;29;20463;-67
2023/07/13 02:43:32;;;;;;;6.23;5.67;;;;;;;18.00;72.36;100675.09;4915906;29;20530;-66
2023/07/13 02:46:15;;;;;;;7.43;5.40;;;;;;;17.90;72.75;100683.19;4904529;29;20955;-66
2023/07/13 02:49:02;;;;;;;5.90;5.10;;;;;;;18.27;72.46;100703.34;4889654;29;20433;-67
2023/07/13 02:51:47;;;;;;;8.93;6.10;;;;;;;17.86;72.87;100707.53;4912882;29;20503;-67
2023/07/13 02:54:31;;;;;;;6.17;5.20;;;;;;;17.86;74.82;100701.22;4900351;29;20431;-67
2023/07/13 02:57:08;;;;;;;13.27;5.10;;;;;;;18.13;73.75;100696.59;4900748;29;20430;-67
2023/07/13 02:59:43;;;;;;;9.83;5.40;;;;;;;18.60;71.63;100713.28;4905043;29;20504;-67
2023/07/13 03:02:30;;;;;;;6.33;5.13;;;;;;;18.54;71.50;100715.16;4912334;29;20432;-65
2023/07/13 03:05:12;;;;;;;4.80;4.40;;;;;;;19.22;68.66;100724.50;4919670;29;20455;-67
2023/07/13 03:08:04;;;;;;;6.10;5.40;;;;;;;19.02;68.63;100738.09;4930376;29;20476;-66
2023/07/13 03:10:49;;;;;;;7.43;5.60;;;;;;;18.90;68.92;100730.03;4904618;29;20456;-68
2023/07/13 03:13:36;;;;;;;7.23;5.00;;;;;;;18.99;68.56;100738.59;4915753;29;20456;-68
2023/07/13 03:16:23;;;;;;;5.27;4.77;;;;;;;19.08;68.41;100731.53;4905467;29;20435;-68
2023/07/13 03:19:10;;;;;;;5.63;5.13;;;;;;;19.12;68.86;100732.69;4920373;29;20479;-66
2023/07/13 03:21:57;;;;;;;6.27;4.90;;;;;;;19.17;69.19;100746.41;4920591;29;20449;-67
2023/07/13 03:24:37;;;;;;;8.70;5.20;;;;;;;19.48;67.86;100742.84;4922032;29;20500;-67
2023/07/13 03:27:24;;;;;;;8.37;5.70;;;;;;;19.37;67.54;100746.56;4909658;29;20473;-66
2023/07/13 03:30:07;;;;;;;5.50;5.00;;;;;;;19.43;67.84;100744.69;4927586;29;20472;-67
2023/07/13 03:32:49;;;;;;;6.10;4.60;;;;;;;18.99;68.00;100746.81;4940468;29;20456;-67
2023/07/13 03:35:35;;;;;;;5.50;4.87;;;;;;;18.85;69.97;100745.59;4943048;29;20474;-66
2023/07/13 03:38:14;;;;;;;5.07;4.53;;;;;;;18.98;69.25;100746.00;4935743;29;20464;-67
2023/07/13 03:40:55;;;;;;;5.77;5.27;;;;;;;18.92;68.70;100757.19;4937355;29;20891;-67
2023/07/13 03:43:35;;;;;;;7.60;5.40;;;;;;;19.10;68.79;100756.78;4927275;29;20865;-67
2023/07/13 03:46:23;;;;;;;12.07;6.13;;;;;;;18.97;69.09;100759.97;4937548;29;20439;-67
2023/07/13 03:51:57;;;;;;;5.80;4.30;;;;;;;20.02;65.44;100758.25;4935207;29;20457;-67
2023/07/13 03:54:27;;;;;;;10.97;5.20;;;;;;;20.60;63.23;100766.16;4933798;29;20529;-67
2023/07/13 03:56:56;;;;;;;5.20;4.70;;;;;;;20.63;63.03;100756.53;4934653;29;20441;-66
2023/07/13 03:59:26;;;;;;;8.10;4.77;;;;;;;20.65;62.89;100754.34;4921762;29;20472;-66
2023/07/13 04:01:55;;;;;;;6.33;4.40;;;;;;;21.62;60.17;100756.88;4919738;29;20423;-66
2023/07/13 04:04:25;;;;;;;5.00;4.50;;;;;;;22.53;56.37;100766.72;4935349;29;20439;-64
2023/07/13 04:06:55;;;;;;;4.67;3.80;;;;;;;22.64;55.71;100768.31;4927049;29;20412;-66
2023/07/13 04:09:26;;;;;;;7.90;4.60;;;;;;;23.42;53.87;100773.84;4935183;29;20426;-66
2023/07/13 04:11:55;;;;;;;4.87;3.60;;;;;;;23.81;51.82;100771.81;4937084;29;20778;-67
2023/07/13 04:14:24;;;;;;;4.70;4.17;;;;;;;23.83;51.77;100768.75;4933898;29;20850;-67
2023/07/13 04:16:54;;;;;;;5.20;4.70;;;;;;;24.00;50.72;100768.28;4933050;29;20441;-65
2023/07/13 04:19:23;;;;;;;12.83;4.53;;;;;;;23.91;50.25;100775.59;4933325;29;20418;-68
2023/07/13 04:21:52;;;;;;;4.53;3.77;;;;;;;24.34;49.96;100782.81;4936068;29;20450;-67
2023/07/13 04:24:21;;;;;;;4.80;4.40;;;;;;;24.16;49.93;100783.56;4934890;29;20443;-67
2023/07/13 04:26:52;;;;;;;5.40;4.20;;;;;;;24.58;48.60;100769.78;4931425;29;20432;-67
2023/07/13 04:29:21;;;;;;;4.50;3.77;;;;;;;24.53;49.16;100778.13;4932988;29;20427;-67
2023/07/13 04:31:50;;;;;;;5.67;4.23;;;;;;;25.04;47.59;100772.69;4936282;29;20428;-67
2023/07/13 04:34:19;;;;;;;4.17;3.53;;;;;;;25.48;47.15;100783.28;4934460;29;20895;-66
2023/07/13 04:36:48;;;;;;;4.93;4.20;;;;;;;25.58;46.28;100787.03;4935940;28;20984;-68
2023/07/13 04:39:17;;;;;;;5.63;3.47;;;;;;;25.43;46.61;100786.16;4935338;29;20439;-68
2023/07/13 04:41:47;;;;;;;7.83;4.80;;;;;;;25.45;46.90;100795.00;4934508;29;20411;-69
2023/07/13 04:44:17;;;;;;;6.53;4.27;;;;;;;25.06;47.51;100802.84;4932962;29;20993;-67
2023/07/13 04:46:46;;;;;;;5.97;3.70;;;;;;;25.79;46.13;100799.41;4934664;29;20782;-67
2023/07/13 04:49:16;;;;;;;6.13;3.83;;;;;;;25.91;46.10;100805.25;4943230;29;20426;-68
2023/07/13 04:51:45;;;;;;;4.80;4.10;;;;;;;26.20;45.44;100805.78;4948192;29;20428;-65
2023/07/13 04:54:14;;;;;;;4.60;3.87;;;;;;;26.08;44.31;100808.28;4938839;29;20451;-67
2023/07/13 04:56:43;;;;;;;7.60;4.37;;;;;;;26.67;43.70;100809.28;4935019;29;21019;-67
2023/07/13 04:59:12;;;;;;;5.40;4.13;;;;;;;26.56;43.49;100799.53;4933865;29;21141;-65
2023/07/13 05:01:43;;;;;;;5.23;3.93;;;;;;;26.30;44.44;100802.84;4937725;29;20433;-68
2023/07/13 05:04:12;;;;;;;4.83;4.00;;;;;;;26.50;43.37;100812.69;4934340;29;20939;-67
2023/07/13 05:06:42;;;;;;;5.47;4.90;;;;;;;26.03;44.22;100808.38;4933944;29;20952;-66
2023/07/13 05:09:12;;;;;;;5.10;4.60;;;;;;;25.98;44.64;100813.19;4933343;29;20984;-66
2023/07/13 05:11:41;;;;;;;6.27;3.50;;;;;;;26.71;44.24;100799.19;4938234;29;20523;-67
2023/07/13 05:14:11;;;;;;;3.60;3.30;;;;;;;26.44;43.76;100804.78;4942036;28;20527;-67
2023/07/13 05:16:42;;;;;;;5.87;4.13;;;;;;;26.70;43.58;100816.97;4934889;29;20430;-69
2023/07/13 05:19:13;;;;;;;4.90;3.30;;;;;;;27.05;43.15;100823.72;4931626;29;20509;-68
2023/07/13 05:21:42;;;;;;;7.70;4.80;;;;;;;27.46;42.29;100813.22;4936713;29;20425;-68
2023/07/13 05:24:11;;;;;;;4.77;4.27;;;;;;;26.97;43.09;100816.94;4933504;29;20433;-66
2023/07/13 05:26:54;;;;;;;5.90;4.50;;;;;;;26.94;42.55;100812.00;4941491;29;20403;-68
2023/07/13 05:29:24;;;;;;;8.73;3.77;;;;;;;27.23;42.84;100822.72;4942236;29;20948;-69
2023/07/13 05:31:56;;;;;;;5.83;4.13;;;;;;;26.98;43.20;100824.13;4943993;29;20463;-70
2023/07/13 05:34:26;;;;;;;4.43;3.93;;;;;;;27.06;42.74;100828.13;4941587;29;20399;-70
2023/07/13 05:36:55;;;;;;;5.10;4.60;;;;;;;26.92;43.11;100817.03;4941122;29;20453;-68
2023/07/13 05:39:26;;;;;;;6.17;4.53;;;;;;;26.27;43.84;100828.44;4937061;29;20437;-68
2023/07/13 05:41:55;;;;;;;6.00;5.47;;;;;;;24.34;48.49;100832.59;4938804;29;20507;-68
2023/07/13 05:44:24;;;;;;;5.30;4.90;;;;;;;22.86;52.74;100826.69;4942972;29;20403;-70
2023/07/13 05:46:56;;;;;;;6.60;4.70;;;;;;;22.32;55.34;100821.13;4934724;29;20458;-70
2023/07/13 05:49:25;;;;;;;9.20;4.30;;;;;;;22.12;56.52;100823.16;4932580;29;20414;-70
2023/07/13 05:51:54;;;;;;;5.57;4.43;;;;;;;21.81;57.51;100825.94;4938842;29;20431;-68
2023/07/13 05:54:24;;;;;;;8.73;4.40;;;;;;;21.80;57.88;100824.28;4932555;29;20432;-70
2023/07/13 05:56:53;;;;;;;7.60;5.13;;;;;;;21.50;58.31;100836.16;4934670;29;20524;-70
2023/07/13 05:59:22;;;;;;;7.03;5.23;;;;;;;21.38;59.18;100826.53;4938798;29;20436;-69
2023/07/13 06:01:52;;;;;;;8.83;4.27;;;;;;;20.92;60.02;100820.94;4939778;29;20411;-70
2023/07/13 06:04:23;;;;;;;7.00;4.47;;;;;;;21.14;59.64;100827.09;4935534;29;20503;-68
2023/07/13 06:06:52;;;;;;;5.00;4.60;;;;;;;21.87;58.09;100824.84;4940629;29;20474;-70
2023/07/13 06:09:21;;;;;;;3.93;3.63;;;;;;;22.17;56.21;100834.19;4941072;29;20429;-70
2023/07/13 06:11:51;;;;;;;4.60;3.73;;;;;;;22.57;55.81;100822.97;4940832;29;20433;-70
2023/07/13 06:14:21;;;;;;;5.30;3.87;;;;;;;22.40;55.33;100828.03;4941244;29;20433;-69
2023/07/13 06:16:50;;;;;;;6.20;3.70;;;;;;;22.32;56.07;100826.66;4937553;29;20433;-73
2023/07/13 06:19:20;;;;;;;5.03;4.20;;;;;;;22.49;55.56;100821.63;4940094;29;20400;-66
2023/07/13 06:21:50;;;;;;;8.13;4.20;;;;;;;22.50;55.24;100816.94;4944215;29;20497;-67
2023/07/13 06:24:20;;;;;;;4.67;3.83;;;;;;;22.40;55.25;100822.50;4940953;29;20829;-65
2023/07/13 06:26:49;;;;;;;3.87;3.43;;;;;;;22.24;56.10;100818.16;4940925;29;20523;-66
2023/07/13 06:29:18;;;;;;;7.80;3.70;;;;;;;22.19;56.55;100819.00;4946044;29;20419;-70
2023/07/13 06:31:47;;;;;;;5.40;4.23;;;;;;;22.16;56.43;100821.50;4934894;29;20435;-67
2023/07/13 06:34:16;;;;;;;3.83;2.83;;;;;;;21.95;57.12;100821.53;4942008;29;20453;-67
2023/07/13 06:36:46;;;;;;;4.80;3.60;;;;;;;22.08;57.52;100820.94;4932559;29;20448;-64
2023/07/13 06:39:17;;;;;;;5.33;4.30;;;;;;;22.05;57.52;100824.28;4939853;29;20418;-64
2023/07/13 06:41:46;;;;;;;8.27;4.10;;;;;;;21.91;57.33;100814.91;4946117;29;20433;-65
2023/07/13 06:44:15;;;;;;;6.00;4.50;;;;;;;22.09;57.03;100828.13;4923755;29;20468;-66
2023/07/13 06:46:44;;;;;;;3.50;2.80;;;;;;;22.14;56.87;100824.53;4938552;29;20470;-64
2023/07/13 06:49:13;;;;;;;3.33;3.03;;;;;;;22.07;56.08;100819.28;4938252;29;20468;-64
2023/07/13 06:51:43;;;;;;;3.87;3.53;;;;;;;22.24;55.66;100816.22;4942837;29;20448;-65
2023/07/13 06:54:12;;;;;;;4.50;3.13;;;;;;;22.50;55.38;100816.94;4931972;29;20416;-63
2023/07/13 06:56:46;;;;;;;5.83;3.57;;;;;;;22.40;54.66;100817.00;4935513;29;20770;-63
2023/07/13 06:59:18;;;;;;;5.97;3.73;;;;;;;22.56;54.66;100810.28;4936986;29;20869;-65
2023/07/13 07:01:47;;;;;;;5.27;3.60;;;;;;;22.98;53.90;100823.59;4940638;29;20453;-66
2023/07/13 07:04:16;;;;;;;4.87;3.60;;;;;;;23.06;53.92;100813.88;4935863;29;20419;-65
2023/07/13 07:06:45;;;;;;;3.00;2.70;;;;;;;23.10;52.63;100818.53;4934280;29;20583;-65
2023/07/13 07:09:16;;;;;;;9.33;3.80;;;;;;;22.88;53.23;100813.44;4935062;29;20858;-66
2023/07/13 07:11:46;;;;;;;4.10;2.93;;;;;;;22.84;52.36;100817.91;4937077;29;20423;-64
2023/07/13 07:14:32;;;;;;;4.50;2.47;;;;;;;22.79;51.82;100814.34;4939176;29;20415;-67
2023/07/13 07:17:01;;;;;;;5.17;2.80;;;;;;;22.78;52.54;100824.53;4933385;29;20396;-63
2023/07/13 07:19:32;;;;;;;6.47;3.20;;;;;;;23.28;52.43;100811.50;4940283;29;20428;-66
2023/07/13 07:22:01;;;;;;;5.30;3.67;;;;;;;23.22;50.60;100818.19;4934565;29;20407;-66
2023/07/13 07:24:30;;;;;;;7.53;3.13;;;;;;;23.51;50.80;100824.59;4937756;29;20803;-65
2023/07/13 07:27:01;;;;;;;3.67;2.37;;;;;;;23.62;49.94;100828.09;4927428;29;20439;-64
2023/07/13 07:29:33;;;;;;;9.07;3.60;;;;;;;24.12;49.08;100835.03;4938415;29;20425;-66
2023/07/13 07:32:06;;;;;;;4.03;3.10;;;;;;;23.92;48.98;100832.47;4931664;29;20502;-63
2023/07/13 07:34:46;;;;;;;3.80;3.03;;;;;;;23.82;48.53;100825.94;4932130;29;20427;-65
2023/07/13 07:37:16;;;;;;;3.43;2.40;;;;;;;23.22;48.64;100827.28;4936007;28;20469;-65
2023/07/13 07:39:48;;;;;;;4.10;2.70;;;;;;;23.27;49.00;100830.00;4932573;29;20484;-65
2023/07/13 07:42:38;;;;;;;3.73;2.47;;;;;;;23.81;48.02;100827.06;4933325;29;20539;-65
2023/07/13 07:45:11;;;;;;;3.40;2.20;;;;;;;24.35;47.25;100833.44;4936861;29;20403;-64
2023/07/13 07:47:40;;;;;;;4.57;3.27;;;;;;;24.43;46.10;100833.59;4936975;29;20483;-62
2023/07/13 07:50:10;;;;;;;3.37;2.13;;;;;;;24.57;45.58;100839.22;4931164;29;20446;-64
2023/07/13 07:52:40;;;;;;;6.60;2.90;;;;;;;24.69;45.05;100843.19;4936690;29;21019;-65
2023/07/13 07:55:09;;;;;;;4.97;2.10;;;;;;;23.96;45.80;100841.84;4935293;29;20433;-65
2023/07/13 07:57:43;;;;;;;6.00;2.70;;;;;;;23.86;45.36;100841.97;4937085;29;20498;-65
2023/07/13 08:00:16;;;;;;;4.00;3.27;;;;;;;23.69;46.00;100839.63;4936383;29;20425;-65
2023/07/13 08:02:49;;;;;;;3.13;2.20;;;;;;;23.59;45.49;100839.72;4935751;29;20466;-67
2023/07/13 08:05:22;;;;;;;4.37;2.73;;;;;;;23.90;45.33;100851.31;4931218;29;20778;-63
2023/07/13 08:08:05;;;;;;;4.90;2.57;;;;;;;23.62;45.87;100845.50;4935684;29;20451;-67
2023/07/13 08:10:38;;;;;;;4.70;2.90;;;;;;;23.55;46.35;100845.00;4933421;29;20748;-66
2023/07/13 08:13:10;;;;;;;4.93;2.80;;;;;;;23.74;46.93;100848.69;4938813;29;20827;-64
2023/07/13 08:15:40;;;;;;;6.90;2.93;;;;;;;23.86;47.28;100837.25;4932471;29;20419;-66
2023/07/13 08:18:09;;;;;;;7.33;3.30;;;;;;;24.31;46.63;100851.69;4937909;29;20431;-66
2023/07/13 08:20:39;;;;;;;4.90;3.70;;;;;;;24.55;46.14;100845.03;4939474;29;20933;-65
2023/07/13 08:23:10;;;;;;;5.07;3.40;;;;;;;24.83;45.23;100837.78;4938676;29;20790;-66
2023/07/13 08:25:40;;;;;;;4.33;2.97;;;;;;;24.59;44.85;100848.84;4935506;29;20419;-66
2023/07/13 08:28:10;;;;;;;3.17;2.87;;;;;;;24.33;45.70;100849.47;4938765;29;20852;-65
2023/07/13 08:30:39;;;;;;;4.33;2.57;;;;;;;24.62;45.54;100853.81;4936564;29;20747;-65
2023/07/13 08:33:09;;;;;;;3.63;2.90;;;;;;;24.86;45.17;100851.00;4936576;29;20436;-66
2023/07/13 08:35:38;;;;;;;3.47;2.50;;;;;;;25.44;44.16;100854.28;4935704;29;20411;-65
2023/07/13 08:38:08;;;;;;;5.20;2.97;;;;;;;25.96;43.68;100849.53;4933752;29;20424;-68
2023/07/13 08:40:38;;;;;;;6.70;3.00;;;;;;;25.98;43.05;100861.16;4935453;29;20442;-64
2023/07/13 08:43:13;;;;;;;2.90;2.60;;;;;;;25.98;42.94;100861.16;4932172;29;20487;-67
2023/07/13 08:45:47;;;;;;;3.60;2.40;;;;;;;25.47;42.90;100859.22;4936437;29;20439;-67
2023/07/13 08:48:21;;;;;;;4.03;2.60;;;;;;;25.57;42.06;100862.97;4934261;29;20452;-67
2023/07/13 08:50:57;;;;;;;2.30;2.10;;;;;;;25.02;42.45;100859.94;4942945;29;20470;-67
2023/07/13 08:53:48;;;;;;;3.50;2.30;;;;;;;24.41;42.82;100863.47;4935373;29;20447;-65
2023/07/13 08:56:20;;;;;;;4.53;2.30;;;;;;;24.60;43.04;100866.28;4938582;29;20398;-64
2023/07/13 08:58:56;;;;;;;4.00;2.20;;;;;;;24.43;43.42;100864.03;4931771;29;20539;-64
2023/07/13 09:01:33;;;;;;;4.77;2.27;;;;;;;24.51;43.04;100863.34;4936516;29;20403;-65
2023/07/13 09:04:10;;;;;;;3.57;2.63;;;;;;;24.76;41.85;100866.91;4934346;29;20419;-64
2023/07/13 09:06:52;;;;;;;4.00;2.47;;;;;;;24.91;42.13;100872.28;4936435;29;20447;-66
2023/07/13 09:09:37;;;;;;;3.77;2.43;;;;;;;25.06;41.40;100866.53;4933926;29;20436;-65
2023/07/13 09:12:15;;;;;;;7.03;2.80;;;;;;;24.94;41.60;100860.59;4928663;29;20875;-65
2023/07/13 09:14:51;;;;;;;4.57;2.13;;;;;;;24.51;41.55;100874.41;4928604;29;20458;-64
2023/07/13 09:17:24;;;;;;;4.00;2.40;;;;;;;24.73;41.24;100862.00;4933158;29;20525;-62
2023/07/13 09:20:00;;;;;;;3.00;2.40;;;;;;;25.01;41.65;100861.06;4934865;29;20442;-65
2023/07/13 09:22:36;;;;;;;3.60;2.63;;;;;;;25.49;40.41;100862.53;4915865;29;20412;-64
2023/07/13 09:25:13;;;;;;;3.63;2.30;;;;;;;25.54;40.35;100864.38;4934743;29;20417;-65
2023/07/13 09:27:47;;;;;;;3.90;2.40;;;;;;;25.64;39.47;100863.41;4931040;29;20455;-66
2023/07/13 09:30:34;;;;;;;3.80;2.03;;;;;;;25.81;39.91;100860.88;4934678;29;20846;-66
2023/07/13 09:33:05;;;;;;;6.83;3.10;;;;;;;25.42;39.24;100864.00;4933137;29;20993;-64
2023/07/13 09:35:37;;;;;;;5.60;2.40;;;;;;;25.66;39.87;100855.63;4937138;29;20432;-70
2023/07/13 09:38:14;;;;;;;5.07;2.67;;;;;;;25.93;39.58;100861.25;4938770;29;20521;-64
2023/07/13 09:40:54;;;;;;;3.60;2.97;;;;;;;26.17;38.77;100856.34;4936953;29;20491;-63
2023/07/13 09:43:23;;;;;;;5.43;3.03;;;;;;;25.89;38.41;100860.22;4934255;29;20410;-64
2023/07/13 09:45:54;;;;;;;7.57;3.50;;;;;;;25.52;40.14;100864.69;4928339;29;20420;-64
2023/07/13 09:48:24;;;;;;;6.37;3.40;;;;;;;25.52;39.76;100861.91;4932652;29;20488;-63
2023/07/13 09:50:57;;;;;;;3.73;2.80;;;;;;;26.23;39.74;100869.03;4964546;23;20556;-68
2023/07/13 09:53:33;;;;;;;4.80;3.33;;;;;;;26.46;38.71;100858.84;4933388;29;20433;-68
2023/07/13 09:56:21;;;;;;;6.73;3.73;;;;;;;26.56;38.10;100857.81;4935744;29;20434;-67
2023/07/13 09:58:51;;;;;;;5.53;3.50;;;;;;;27.12;37.70;100858.22;4930618;29;20792;-67
2023/07/13 10:01:34;;;;;;;4.40;3.67;;;;;;;27.54;36.72;100868.09;4929767;29;20429;-66
2023/07/13 10:04:11;;;;;;;4.80;3.97;;;;;;;27.46;36.72;100870.75;4936130;29;20494;-68
2023/07/13 10:06:42;;;;;;;6.47;3.67;;;;;;;27.02;36.82;100864.03;4933702;29;20419;-67
2023/07/13 10:09:15;;;;;;;5.03;3.70;;;;;;;27.24;36.57;100857.69;4930627;29;20477;-67
2023/07/13 10:11:45;;;;;;;5.63;3.60;;;;;;;27.60;36.66;100860.44;4929471;29;20432;-68
2023/07/13 10:14:18;;;;;;;5.87;3.80;;;;;;;27.17;36.81;100862.84;4935811;29;20440;-68
2023/07/13 10:16:53;;;;;;;5.30;4.23;;;;;;;27.04;37.44;100869.28;4930418;29;20433;-68
2023/07/13 10:19:26;;;;;;;4.10;3.77;;;;;;;27.53;36.30;100857.28;4931572;29;20468;-67
2023/07/13 10:21:59;;;;;;;7.03;3.70;;;;;;;26.91;35.43;100847.91;4924170;29;20414;-67
2023/07/13 10:24:31;;;;;;;7.33;4.40;;;;;;;26.16;36.75;100862.19;4930172;29;20448;-67
2023/07/13 10:27:07;;;;;;;5.87;3.57;;;;;;;25.88;37.29;100869.66;4928149;29;20523;-66
2023/07/13 10:29:42;;;;;;;7.13;3.60;;;;;;;25.74;36.08;100864.06;4930592;29;20958;-67
2023/07/13 10:32:13;;;;;;;4.93;3.67;;;;;;;25.78;36.80;100864.28;4932934;29;20403;-68
2023/07/13 10:35:12;;;;;;;5.27;4.27;;;;;;;25.69;36.46;100866.09;4927179;29;20411;-66
2023/07/13 10:37:49;;;;;;;6.00;3.40;;;;;;;26.10;36.04;100858.69;4928991;29;20507;-67
2023/07/13 10:40:25;;;;;;;7.03;3.93;;;;;;;26.51;35.93;100858.75;4931162;29;20438;-67
2023/07/13 10:42:58;;;;;;;5.90;4.03;;;;;;;27.09;35.99;100860.81;4928946;29;20496;-66
2023/07/13 10:45:31;;;;;;;7.70;4.50;;;;;;;27.04;35.65;100864.53;4932713;29;20434;-68
2023/07/13 10:48:02;;;;;;;7.50;3.90;;;;;;;26.90;36.15;100852.66;4925986;29;20895;-67
2023/07/13 10:50:32;;;;;;;5.40;3.50;;;;;;;26.72;36.14;100861.91;4929267;29;20511;-67
2023/07/13 10:53:04;;;;;;;5.90;3.83;;;;;;;26.22;37.55;100861.81;4932051;29;20433;-66
2023/07/13 10:55:38;;;;;;;4.47;3.80;;;;;;;25.79;37.73;100871.47;4933155;29;20433;-68
2023/07/13 10:58:20;;;;;;;8.03;3.83;;;;;;;26.06;38.13;100856.84;4924904;29;20796;-68
2023/07/13 11:00:54;;;;;;;5.83;3.43;;;;;;;26.54;37.70;100851.72;4933425;29;20515;-68
2023/07/13 11:03:29;;;;;;;6.37;3.47;;;;;;;26.34;37.04;100856.56;4935545;29;21127;-69
2023/07/13 11:06:11;;;;;;;7.00;3.50;;;;;;;26.61;37.45;100852.16;4930670;29;20488;-67
2023/07/13 11:08:54;;;;;;;7.27;4.13;;;;;;;26.87;36.29;100847.69;4926534;29;20477;-67
2023/07/13 11:11:38;;;;;;;3.67;3.37;;;;;;;27.06;35.62;100856.69;4929464;29;20457;-68
2023/07/13 11:14:29;;;;;;;5.60;3.93;;;;;;;27.03;36.04;100849.00;4933403;29;20446;-68
2023/07/13 11:16:59;;;;;;;5.93;3.47;;;;;;;27.25;35.24;100864.91;4935352;29;20787;-67
2023/07/13 11:19:53;;;;;;;7.93;3.77;;;;;;;27.09;35.26;100856.09;4935712;29;20975;-68
2023/07/13 11:22:43;;;;;;;7.70;3.97;;;;;;;27.11;35.29;100853.81;4935088;29;20432;-70
2023/07/13 11:25:30;;;;;;;5.10;4.60;;;;;;;27.15;34.87;100854.03;4933849;29;20444;-69
2023/07/13 11:28:18;;;;;;;5.80;4.40;;;;;;;27.42;35.26;100848.34;4936808;29;20484;-69
2023/07/13 11:30:50;;;;;;;5.23;3.97;;;;;;;27.50;34.73;100857.91;4933647;29;20446;-68
2023/07/13 11:33:23;;;;;;;4.20;3.40;;;;;;;27.65;33.66;100852.78;4932445;29;20411;-70
2023/07/13 11:36:01;;;;;;;7.40;3.30;;;;;;;27.08;32.05;100848.88;4931939;29;20536;-69
2023/07/13 11:38:34;;;;;;;3.80;3.37;;;;;;;27.08;32.40;100857.22;4935037;29;20890;-69
2023/07/13 11:41:07;;;;;;;4.67;2.87;;;;;;;27.16;33.03;100850.91;4933499;29;20447;-69
2023/07/13 11:43:38;;;;;;;4.73;3.10;;;;;;;27.56;32.41;100853.88;4932254;29;20945;-68
2023/07/13 11:46:23;;;;;;;7.27;3.20;;;;;;;27.43;33.07;100861.13;4936466;29;20940;-68
2023/07/13 11:48:54;;;;;;;3.87;2.93;;;;;;;27.43;33.15;100858.34;4933621;29;20518;-68
2023/07/13 11:51:27;;;;;;;4.77;3.67;;;;;;;27.14;32.71;100855.16;4929548;29;20461;-69
2023/07/13 11:54:01;;;;;;;7.00;3.83;;;;;;;26.71;33.65;100849.16;4935255;29;20436;-68
2023/07/13 11:56:32;;;;;;;4.63;3.20;;;;;;;26.41;34.41;100849.78;4940677;29;20407;-68
2023/07/13 11:59:08;;;;;;;7.70;3.93;;;;;;;26.46;35.56;100849.69;4938501;28;20811;-69
2023/07/13 12:01:43;;;;;;;4.97;3.47;;;;;;;26.79;34.52;100857.56;4934391;29;20495;-67
2023/07/13 12:04:23;;;;;;;5.50;3.47;;;;;;;27.21;33.67;100856.34;4931824;29;20520;-69
2023/07/13 12:07:08;;;;;;;4.50;3.20;;;;;;;27.44;32.75;100853.59;4931820;29;20947;-70
2023/07/13 12:09:38;;;;;;;4.77;3.00;;;;;;;26.99;32.51;100856.31;4938431;29;20546;-69
2023/07/13 12:12:13;;;;;;;5.73;3.77;;;;;;;26.99;33.34;100861.88;4935474;29;20456;-68
2023/07/13 12:14:42;;;;;;;4.70;3.20;;;;;;;27.34;32.33;100853.84;4935144;29;20440;-68
2023/07/13 12:17:17;;;;;;;6.43;3.43;;;;;;;27.61;32.43;100857.34;4933662;29;20831;-68
2023/07/13 12:19:49;;;;;;;3.73;3.10;;;;;;;26.74;33.94;100845.75;4928807;29;20406;-69
2023/07/13 12:22:22;;;;;;;8.97;3.67;;;;;;;26.28;34.40;100846.72;4937406;29;20694;-69
2023/07/13 12:24:54;;;;;;;7.93;3.20;;;;;;;26.07;35.28;100861.25;4933999;29;20771;-69
2023/07/13 12:27:25;;;;;;;5.03;3.23;;;;;;;26.38;35.42;100856.81;4935587;29;20551;-69
2023/07/13 12:29:58;;;;;;;6.20;3.57;;;;;;;26.78;35.05;100857.88;4934521;29;20512;-69
2023/07/13 12:32:30;;;;;;;5.30;3.60;;;;;;;26.89;33.49;100848.22;4934025;29;20407;-67
2023/07/13 12:35:15;;;;;;;5.67;2.90;;;;;;;27.13;33.73;100848.78;4930888;29;20430;-69
2023/07/13 12:37:47;;;;;;;3.93;3.37;;;;;;;27.32;32.92;100854.16;4930121;29;20452;-68
2023/07/13 12:40:19;;;;;;;9.13;3.60;;;;;;;26.90;33.13;100846.28;4934227;29;20447;-67
2023/07/13 12:42:50;;;;;;;6.57;2.93;;;;;;;27.18;32.68;100850.59;4930572;29;21004;-68
2023/07/13 12:45:23;;;;;;;9.00;2.50;;;;;;;27.15;33.01;100843.75;4937783;29;20424;-68
2023/07/13 12:47:58;;;;;;;3.37;2.70;;;;;;;27.13;32.23;100840.44;4931101;29;20985;-68
2023/07/13 12:50:35;;;;;;;3.50;2.57;;;;;;;27.24;32.68;100844.63;4929199;29;20415;-69
2023/07/13 12:53:08;;;;;;;3.50;2.93;;;;;;;26.64;33.44;100837.66;4933659;29;20805;-69